Time;durP1;ratioP1;P1;durP2;ratioP2;P2;SDS_P1;SDS_P2;PMS_P1;PMS_P2;Temp;Humidity;BMP_temperature;BMP_pressure;BME280_temperature;BME280_humidity;BME280_pressure;Samples;Min_cycle;Max_cycle;Signal;HPM_P1;HPM_P2
2023/12/28 00:01:29;;;;;;;5.22;0.80;;;;;;;7.33;100.00;97932.34;4981700;28;20040;-92
2023/12/28 00:03:54;;;;;;;6.68;1.08;;;;;;;7.26;100.00;97949.84;4976212;28;20104;-93
2023/12/28 00:06:20;;;;;;;6.47;1.02;;;;;;;7.23;100.00;97955.47;5009436;28;20042;-96
2023/12/28 00:08:46;;;;;;;10.00;1.15;;;;;;;7.19;100.00;97962.91;4980714;28;20084;-92
2023/12/28 00:11:14;;;;;;;5.82;0.90;;;;;;;7.18;100.00;97977.06;5004337;28;20577;-96
2023/12/28 00:13:43;;;;;;;11.63;1.65;;;;;;;7.12;100.00;97972.53;4986581;28;20060;-93
2023/12/28 00:16:19;;;;;;;7.68;1.00;;;;;;;7.21;100.00;97995.06;5001050;28;20569;-94
2023/12/28 00:18:45;;;;;;;10.75;1.30;;;;;;;7.24;100.00;98004.38;5010807;28;20120;-94
2023/12/28 00:21:11;;;;;;;8.65;1.50;;;;;;;7.29;100.00;98015.16;4994591;28;20609;-96
2023/12/28 00:23:39;;;;;;;17.25;2.58;;;;;;;7.28;100.00;98016.97;5012051;28;20057;-92
2023/12/28 00:26:05;;;;;;;16.15;1.60;;;;;;;7.32;100.00;98031.41;4993228;28;20085;-94
2023/12/28 00:28:31;;;;;;;13.02;1.70;;;;;;;7.32;100.00;98023.50;4995149;28;20073;-93
2023/12/28 00:31:04;;;;;;;11.35;1.25;;;;;;;7.34;100.00;97990.97;5004561;28;20037;-93
2023/12/28 00:33:30;;;;;;;10.60;1.42;;;;;;;7.44;100.00;98057.19;4995123;28;20490;-93
2023/12/28 00:36:09;;;;;;;;;;;;;;;;;;;;;
2023/12/28 00:38:39;;;;;;;12.15;1.80;;;;;;;7.42;100.00;98049.50;5028089;28;20036;-95
2023/12/28 00:41:15;;;;;;;22.10;1.67;;;;;;;7.51;100.00;98063.34;5009034;28;20087;-95
2023/12/28 00:44:06;;;;;;;;;;;;;;;;;;;;;
2023/12/28 00:46:35;;;;;;;6.65;1.23;;;;;;;7.60;100.00;98095.59;4994571;28;20414;-96
2023/12/28 00:49:29;;;;;;;8.07;1.27;;;;;;;7.61;100.00;98112.19;5022967;28;20038;-94
2023/12/28 00:52:13;;;;;;;7.50;1.00;;;;;;;7.61;100.00;98096.44;5010713;28;20038;-95
2023/12/28 00:54:41;;;;;;;10.43;1.20;;;;;;;7.65;100.00;98119.53;5002965;28;20030;-93
2023/12/28 00:57:18;;;;;;;7.68;1.20;;;;;;;7.63;100.00;98115.47;4989752;28;20100;-92
2023/12/28 00:59:45;;;;;;;4.93;1.00;;;;;;;7.63;100.00;98128.63;4993943;28;20034;-94
2023/12/28 01:02:11;;;;;;;10.05;1.55;;;;;;;7.64;100.00;98124.97;4995725;28;20038;-93
2023/12/28 01:04:38;;;;;;;9.48;1.85;;;;;;;7.63;100.00;98137.31;4996690;28;20044;-94
2023/12/28 01:07:05;;;;;;;10.57;1.48;;;;;;;7.63;100.00;98139.13;4996656;28;20056;-94
2023/12/28 01:09:34;;;;;;;9.73;1.67;;;;;;;7.59;100.00;98140.47;4992114;28;20112;-96
2023/12/28 01:12:00;;;;;;;11.05;1.50;;;;;;;7.59;100.00;98146.56;5028925;28;20109;-94
2023/12/28 01:14:26;;;;;;;9.30;1.30;;;;;;;7.57;100.00;98149.38;5023895;28;20049;-93
2023/12/28 01:16:52;;;;;;;5.03;0.80;;;;;;;7.57;100.00;98166.94;5007885;28;20070;-93
2023/12/28 01:19:23;;;;;;;5.15;1.05;;;;;;;7.57;100.00;98165.16;4994988;28;20045;-94
2023/12/28 01:21:49;;;;;;;8.10;1.08;;;;;;;7.62;100.00;98172.50;5006013;28;20037;-93
2023/12/28 01:24:15;;;;;;;7.63;0.77;;;;;;;7.61;100.00;98165.63;4982907;28;20034;-94
2023/12/28 01:26:42;;;;;;;11.73;1.33;;;;;;;7.63;100.00;98171.47;5009723;28;20034;-94
2023/12/28 01:29:37;;;;;;;9.13;1.58;;;;;;;7.60;100.00;98179.72;4978476;28;20398;-94
2023/12/28 01:32:19;;;;;;;8.45;1.23;;;;;;;7.63;100.00;98179.38;4994760;28;20038;-95
2023/12/28 01:35:04;;;;;;;;;;;;;;;;;;;;;
2023/12/28 01:37:35;;;;;;;16.00;2.15;;;;;;;7.59;100.00;98191.25;4989895;28;20034;-93
2023/12/28 01:40:32;;;;;;;;;;;;;;;;;;;;;
2023/12/28 01:43:05;;;;;;;17.20;1.60;;;;;;;7.66;100.00;98207.94;4991331;28;20042;-93
2023/12/28 01:45:31;;;;;;;10.82;1.63;;;;;;;7.63;100.00;98221.44;4994553;28;20037;-95
2023/12/28 01:48:01;;;;;;;12.70;1.40;;;;;;;7.68;100.00;98223.53;5010320;28;20042;-95
2023/12/28 01:50:38;;;;;;;9.18;1.55;;;;;;;7.69;100.00;98238.31;4995527;28;20084;-94
2023/12/28 01:53:08;;;;;;;11.40;2.53;;;;;;;7.66;100.00;98236.06;5006320;28;20124;-94
2023/12/28 01:55:34;;;;;;;11.45;2.15;;;;;;;7.68;100.00;98257.72;5010674;28;20069;-92
2023/12/28 01:58:09;;;;;;;26.08;3.50;;;;;;;7.65;100.00;98248.38;5012053;28;20061;-94
2023/12/28 02:00:37;;;;;;;9.00;1.83;;;;;;;7.68;100.00;98255.91;5009089;28;20371;-93
2023/12/28 02:03:06;;;;;;;14.52;1.67;;;;;;;7.75;100.00;98261.25;4985155;28;20108;-93
2023/12/28 02:05:35;;;;;;;9.70;1.50;;;;;;;7.79;100.00;98266.97;4994044;28;20026;-94
2023/12/28 02:08:05;;;;;;;14.80;1.77;;;;;;;7.84;100.00;98276.94;5011348;28;20108;-94
2023/12/28 02:10:31;;;;;;;14.68;2.08;;;;;;;7.82;100.00;98283.22;5008423;28;20040;-95
2023/12/28 02:12:57;;;;;;;11.10;1.60;;;;;;;7.80;100.00;98273.88;4989520;28;20374;-92
2023/12/28 02:15:23;;;;;;;11.35;1.77;;;;;;;7.77;100.00;98266.34;5016621;28;20041;-93
2023/12/28 02:18:08;;;;;;;8.90;2.10;;;;;;;7.82;100.00;98279.75;5004458;28;20430;-96
2023/12/28 02:20:35;;;;;;;6.80;1.67;;;;;;;7.78;100.00;98274.06;4986087;28;20378;-94
2023/12/28 02:23:01;;;;;;;13.18;1.70;;;;;;;7.75;100.00;98292.81;5026169;28;20470;-94
2023/12/28 02:25:26;;;;;;;11.48;1.90;;;;;;;7.74;100.00;98301.69;4992399;28;20034;-95
2023/12/28 02:27:52;;;;;;;14.82;2.65;;;;;;;7.74;100.00;98306.16;5020526;28;20097;-95
2023/12/28 02:30:23;;;;;;;9.90;1.42;;;;;;;7.84;100.00;98297.97;4989212;28;20042;-94
2023/12/28 02:33:12;;;;;;;12.25;1.73;;;;;;;7.89;100.00;98299.09;5021169;28;20027;-94
2023/12/28 02:35:56;;;;;;;12.65;1.70;;;;;;;7.90;100.00;98305.19;5017341;28;20089;-92
2023/12/28 02:38:24;;;;;;;11.55;1.15;;;;;;;7.89;100.00;98320.13;4986367;28;20049;-94
2023/12/28 02:40:51;;;;;;;9.52;1.92;;;;;;;7.88;100.00;98320.31;4992642;28;20062;-94
2023/12/28 02:43:17;;;;;;;6.57;1.25;;;;;;;7.87;100.00;98322.13;5012919;28;20068;-91
2023/12/28 02:45:42;;;;;;;8.45;1.98;;;;;;;7.84;100.00;98332.16;5008494;28;20123;-96
2023/12/28 02:48:14;;;;;;;7.38;1.08;;;;;;;7.84;100.00;98319.03;4999310;28;20069;-95
2023/12/28 02:50:43;;;;;;;7.32;1.00;;;;;;;7.85;100.00;98320.69;4982401;28;20034;-96
2023/12/28 02:53:09;;;;;;;5.35;0.73;;;;;;;7.85;100.00;98321.47;5007588;28;20081;-92
2023/12/28 02:55:37;;;;;;;4.93;0.80;;;;;;;7.78;100.00;98323.19;4980904;28;20058;-94
2023/12/28 02:58:06;;;;;;;5.95;1.20;;;;;;;7.78;100.00;98328.47;5016064;28;20029;-94
2023/12/28 03:00:39;;;;;;;5.43;0.93;;;;;;;7.81;100.00;98336.81;4998743;28;20398;-94
2023/12/28 03:03:07;;;;;;;5.65;0.95;;;;;;;7.81;100.00;98334.19;4999144;28;20030;-94
2023/12/28 03:05:51;;;;;;;16.30;1.52;;;;;;;7.84;100.00;98333.00;4994771;28;20031;-95
2023/12/28 03:08:23;;;;;;;15.23;1.38;;;;;;;7.72;100.00;98324.75;4990938;28;20069;-93
2023/12/28 03:11:01;;;;;;;16.10;1.40;;;;;;;7.73;100.00;98322.91;4996558;28;20029;-94
2023/12/28 03:13:28;;;;;;;7.20;1.80;;;;;;;7.61;100.00;98327.78;4980455;28;20464;-95
2023/12/28 03:15:54;;;;;;;10.57;2.10;;;;;;;7.62;100.00;98339.94;4980101;28;20034;-95
2023/12/28 03:18:24;;;;;;;8.20;1.00;;;;;;;7.62;100.00;98334.69;4982462;28;20030;-92
2023/12/28 03:20:52;;;;;;;15.55;2.08;;;;;;;7.60;100.00;98341.94;5022624;28;20022;-81
2023/12/28 03:23:18;;;;;;;14.05;1.75;;;;;;;7.61;100.00;98341.75;5047421;28;20025;-95
2023/12/28 03:25:48;;;;;;;12.45;1.85;;;;;;;7.65;100.00;98335.16;4984082;28;20029;-96
2023/12/28 03:28:17;;;;;;;17.77;1.73;;;;;;;7.66;100.00;98341.22;5014570;28;20121;-93
2023/12/28 03:30:46;;;;;;;15.05;1.45;;;;;;;7.57;100.00;98332.56;4997578;28;20061;-95
2023/12/28 03:33:12;;;;;;;9.57;1.60;;;;;;;7.61;100.00;98330.41;4982987;28;20038;-95
2023/12/28 03:35:38;;;;;;;14.43;1.42;;;;;;;7.63;100.00;98336.31;4982565;28;20038;-93
2023/12/28 03:38:04;;;;;;;16.75;2.20;;;;;;;7.55;100.00;98322.25;4998189;28;20053;-95
2023/12/28 03:40:30;;;;;;;17.10;2.35;;;;;;;7.59;100.00;98327.97;5014375;28;20474;-95
2023/12/28 03:42:57;;;;;;;9.98;1.58;;;;;;;7.49;100.00;98320.31;4984671;28;20041;-95
2023/12/28 03:45:28;;;;;;;15.43;2.47;;;;;;;7.56;100.00;98333.59;4999549;28;20036;-96
2023/12/28 03:48:06;;;;;;;15.23;3.25;;;;;;;7.52;100.00;98332.28;4997232;28;20041;-96
2023/12/28 03:50:39;;;;;;;18.83;3.25;;;;;;;7.49;100.00;98325.56;5004431;28;20030;-95
2023/12/28 03:53:05;;;;;;;20.20;3.15;;;;;;;7.45;100.00;98325.09;4983914;28;20034;-96
2023/12/28 03:55:32;;;;;;;19.70;3.10;;;;;;;7.46;100.00;98331.19;4995170;28;20030;-96
2023/12/28 03:57:58;;;;;;;25.92;3.88;;;;;;;7.47;100.00;98318.88;4981209;28;20037;-94
2023/12/28 04:00:24;;;;;;;15.60;2.65;;;;;;;7.42;100.00;98325.47;5029584;28;20025;-95
2023/12/28 04:02:53;;;;;;;32.08;4.28;;;;;;;7.41;100.00;98331.72;4998722;28;20030;-95
2023/12/28 04:05:18;;;;;;;13.15;3.15;;;;;;;7.46;100.00;98336.44;5010608;28;20034;-95
2023/12/28 04:07:44;;;;;;;27.92;3.10;;;;;;;7.43;100.00;98336.81;4975911;28;20038;-94
2023/12/28 04:10:10;;;;;;;23.45;2.70;;;;;;;7.47;100.00;98334.66;4993115;28;20038;-95
2023/12/28 04:12:38;;;;;;;24.63;3.42;;;;;;;7.46;100.00;98333.81;4998645;28;20036;-94
2023/12/28 04:15:05;;;;;;;24.30;4.82;;;;;;;7.47;100.00;98338.06;4981694;28;20387;-96
2023/12/28 04:17:30;;;;;;;28.00;4.03;;;;;;;7.46;100.00;98341.72;5008596;28;20037;-91
2023/12/28 04:19:56;;;;;;;22.17;3.35;;;;;;;7.53;100.00;98341.81;5008193;28;20034;-94
2023/12/28 04:22:22;;;;;;;18.02;3.33;;;;;;;7.61;100.00;98360.16;5007503;28;20041;-93
2023/12/28 04:24:48;;;;;;;20.80;3.15;;;;;;;7.62;100.00;98358.34;4992854;28;20056;-93
2023/12/28 04:27:13;;;;;;;21.05;2.92;;;;;;;7.66;100.00;98370.94;5014321;28;20040;-93
2023/12/28 04:29:39;;;;;;;23.15;3.20;;;;;;;7.61;100.00;98381.19;5003520;28;20038;-95
2023/12/28 04:32:05;;;;;;;22.90;3.65;;;;;;;7.64;100.00;98380.03;4979312;28;20037;-94
2023/12/28 04:34:31;;;;;;;17.45;2.47;;;;;;;7.60;100.00;98342.75;5007265;28;20030;-94
2023/12/28 04:36:59;;;;;;;26.33;3.38;;;;;;;7.52;100.00;98338.38;4993311;28;20176;-95
2023/12/28 04:39:24;;;;;;;18.65;3.35;;;;;;;7.45;100.00;98348.75;4980452;28;20030;-96
2023/12/28 04:41:50;;;;;;;17.25;2.60;;;;;;;7.45;100.00;98374.25;4993750;28;20383;-94
2023/12/28 04:44:16;;;;;;;17.83;2.83;;;;;;;7.40;100.00;98368.69;4996981;28;20053;-96
2023/12/28 04:46:44;;;;;;;17.52;1.70;;;;;;;7.36;100.00;98377.94;4999857;28;20033;-94
2023/12/28 04:49:10;;;;;;;23.77;2.63;;;;;;;7.37;100.00;98364.63;5002090;28;20489;-95
2023/12/28 04:51:42;;;;;;;18.00;2.15;;;;;;;7.37;100.00;98374.31;4998275;28;20815;-95
2023/12/28 04:54:08;;;;;;;7.35;1.50;;;;;;;7.23;100.00;98370.63;4998870;28;20026;-95
2023/12/28 04:56:34;;;;;;;6.43;1.40;;;;;;;7.18;100.00;98384.28;4980071;28;20112;-95
2023/12/28 04:58:59;;;;;;;11.25;1.58;;;;;;;7.14;100.00;98380.34;4990786;28;20179;-96
2023/12/28 05:01:25;;;;;;;7.13;1.25;;;;;;;7.14;100.00;98380.34;5007286;28;20045;-96
2023/12/28 05:03:51;;;;;;;5.78;1.38;;;;;;;7.08;100.00;98376.63;4991594;28;20041;-96
2023/12/28 05:06:20;;;;;;;11.82;1.35;;;;;;;7.08;100.00;98392.38;4994189;28;20072;-93
2023/12/28 05:08:46;;;;;;;10.38;1.23;;;;;;;7.05;100.00;98384.84;4982723;28;20045;-96
2023/12/28 05:11:13;;;;;;;13.90;2.28;;;;;;;6.99;100.00;98383.69;4968492;28;20197;-94
2023/12/28 05:13:38;;;;;;;10.45;2.15;;;;;;;6.98;100.00;98389.13;5008238;28;20128;-96
2023/12/28 05:16:05;;;;;;;8.73;1.15;;;;;;;6.99;100.00;98377.66;5030610;28;20050;-95
2023/12/28 05:18:31;;;;;;;11.70;1.40;;;;;;;6.92;100.00;98370.47;4996771;28;20060;-94
2023/12/28 05:20:57;;;;;;;11.20;1.95;;;;;;;6.94;100.00;98372.91;5009061;28;20672;-94
2023/12/28 05:23:23;;;;;;;11.10;2.03;;;;;;;6.94;100.00;98375.53;4982273;28;20038;-96
2023/12/28 05:25:48;;;;;;;8.93;1.40;;;;;;;6.91;100.00;98365.38;5027828;28;20034;-94
2023/12/28 05:28:14;;;;;;;10.88;1.80;;;;;;;6.92;100.00;98364.38;4989218;28;20363;-95
2023/12/28 05:30:40;;;;;;;12.85;2.42;;;;;;;6.94;100.00;98350.06;4996073;28;20026;-95
2023/12/28 05:33:06;;;;;;;9.93;1.20;;;;;;;7.00;100.00;98358.25;5008387;28;20370;-95
2023/12/28 05:35:31;;;;;;;6.07;1.42;;;;;;;6.98;100.00;98353.19;5029415;28;20026;-94
2023/12/28 05:37:57;;;;;;;10.70;1.58;;;;;;;6.94;100.00;98350.06;4997429;28;20026;-95
2023/12/28 05:40:23;;;;;;;9.60;1.30;;;;;;;6.94;100.00;98336.94;4987395;28;20034;-96
2023/12/28 05:42:48;;;;;;;10.82;1.30;;;;;;;6.91;100.00;98334.66;5009763;28;20057;-94
2023/12/28 05:45:14;;;;;;;10.13;1.25;;;;;;;6.93;100.00;98324.00;4999180;28;20085;-96
2023/12/28 05:47:40;;;;;;;6.50;0.98;;;;;;;6.94;100.00;98336.94;5024659;28;20109;-85
2023/12/28 05:50:06;;;;;;;12.50;1.27;;;;;;;6.89;100.00;98333.22;4998290;28;20103;-95
2023/12/28 05:52:32;;;;;;;11.40;1.08;;;;;;;6.88;100.00;98329.75;5013513;28;20033;-95
2023/12/28 05:54:58;;;;;;;6.95;1.02;;;;;;;6.90;100.00;98340.09;5029180;28;20045;-93
2023/12/28 05:57:25;;;;;;;4.65;0.75;;;;;;;6.90;100.00;98333.03;4996413;28;20053;-95
2023/12/28 05:59:50;;;;;;;3.70;0.88;;;;;;;6.90;100.00;98330.41;4973278;28;20101;-94
2023/12/28 06:02:16;;;;;;;6.93;0.80;;;;;;;6.92;100.00;98319.72;4995092;28;20453;-95
2023/12/28 06:04:42;;;;;;;8.65;0.90;;;;;;;6.93;100.00;98324.00;4997254;28;20045;-95
2023/12/28 06:07:08;;;;;;;5.03;0.88;;;;;;;6.90;100.00;98321.72;4992624;28;20030;-96
2023/12/28 06:09:34;;;;;;;5.05;0.95;;;;;;;6.90;100.00;98330.41;4996874;28;20037;-95
2023/12/28 06:11:59;;;;;;;7.35;1.40;;;;;;;6.91;100.00;98323.38;4983711;28;20057;-95
2023/12/28 06:14:25;;;;;;;8.15;1.30;;;;;;;6.88;100.00;98324.50;4990194;28;20029;-94
2023/12/28 06:16:51;;;;;;;7.90;0.95;;;;;;;6.86;100.00;98312.56;5000344;28;20045;-95
2023/12/28 06:19:17;;;;;;;9.25;1.30;;;;;;;6.85;100.00;98324.06;5005925;28;20463;-96
2023/12/28 06:21:43;;;;;;;8.25;1.25;;;;;;;6.77;100.00;98317.03;5032541;28;20034;-96
2023/12/28 06:24:09;;;;;;;3.63;0.63;;;;;;;6.73;100.00;98318.34;5000048;28;20406;-95
2023/12/28 06:26:40;;;;;;;5.97;1.00;;;;;;;6.74;100.00;98323.44;5027588;28;20030;-96
2023/12/28 06:29:06;;;;;;;5.53;0.82;;;;;;;6.70;100.00;98325.56;4989825;28;20026;-93
2023/12/28 06:31:36;;;;;;;6.25;0.50;;;;;;;6.75;100.00;98324.25;4998018;28;20037;-96
2023/12/28 06:34:06;;;;;;;6.25;1.40;;;;;;;6.77;100.00;98333.59;5013643;28;20025;-96
2023/12/28 06:36:32;;;;;;;3.83;0.80;;;;;;;6.72;100.00;98316.72;5003781;28;20036;-95
2023/12/28 06:38:59;;;;;;;5.47;0.82;;;;;;;6.77;100.00;98302.09;5010839;28;20472;-96
2023/12/28 06:41:27;;;;;;;7.22;0.80;;;;;;;6.77;100.00;98307.34;5043838;28;20026;-96
2023/12/28 06:43:53;;;;;;;6.55;0.85;;;;;;;6.79;100.00;98284.34;5035292;28;20025;-95
2023/12/28 06:46:19;;;;;;;9.30;1.20;;;;;;;6.83;100.00;98300.59;4996832;28;20042;-96
2023/12/28 06:48:45;;;;;;;6.47;1.23;;;;;;;6.82;100.00;98288.44;5002162;28;20083;-94
2023/12/28 06:51:18;;;;;;;8.02;0.88;;;;;;;6.90;100.00;98290.19;5001813;28;20042;-95
2023/12/28 06:53:44;;;;;;;8.18;1.02;;;;;;;6.85;100.00;98295.16;5012296;28;20037;-96
2023/12/28 06:56:10;;;;;;;8.77;1.65;;;;;;;6.82;100.00;98289.25;5015654;28;20073;-95
2023/12/28 06:58:36;;;;;;;6.82;1.67;;;;;;;6.82;100.00;98286.63;5015376;28;20073;-94
2023/12/28 07:01:05;;;;;;;11.30;1.38;;;;;;;6.87;100.00;98277.41;4984453;28;20045;-96
2023/12/28 07:03:32;;;;;;;7.22;1.80;;;;;;;6.85;100.00;98288.09;5000413;28;20026;-96
2023/12/28 07:05:59;;;;;;;9.57;0.93;;;;;;;6.87;100.00;98278.25;4998940;28;20040;-94
2023/12/28 07:08:25;;;;;;;6.43;0.88;;;;;;;6.86;100.00;98279.25;4982281;28;20493;-96
2023/12/28 07:10:51;;;;;;;8.80;1.15;;;;;;;6.85;100.00;98274.16;5031169;28;20045;-96
2023/12/28 07:13:17;;;;;;;5.57;0.80;;;;;;;6.88;100.00;98279.06;4989930;28;20023;-96
2023/12/28 07:15:42;;;;;;;4.55;0.68;;;;;;;6.86;100.00;98268.75;5011153;28;20057;-95
2023/12/28 07:18:11;;;;;;;6.10;1.13;;;;;;;6.91;100.00;98261.13;5027445;28;20116;-96
2023/12/28 07:20:37;;;;;;;9.93;1.02;;;;;;;6.91;100.00;98248.00;5012605;28;20045;-94
2023/12/28 07:23:03;;;;;;;7.13;1.25;;;;;;;6.92;100.00;98249.66;5017244;28;20025;-96
2023/12/28 07:25:29;;;;;;;11.20;1.27;;;;;;;6.94;100.00;98238.97;5013480;28;20366;-96
2023/12/28 07:27:54;;;;;;;11.45;2.22;;;;;;;6.94;100.00;98231.09;5028732;28;20026;-95
2023/12/28 07:30:21;;;;;;;9.70;1.45;;;;;;;6.96;100.00;98236.97;5009553;28;20045;-96
2023/12/28 07:32:47;;;;;;;7.50;1.38;;;;;;;7.00;100.00;98227.75;5014161;28;20026;-95
2023/12/28 07:35:13;;;;;;;7.43;1.48;;;;;;;6.98;100.00;98219.22;5027274;28;20057;-94
2023/12/28 07:37:38;;;;;;;8.68;1.50;;;;;;;7.02;100.00;98227.59;5013939;28;20083;-95
2023/12/28 07:40:05;;;;;;;12.13;1.58;;;;;;;7.03;100.00;98218.69;4988372;28;20422;-96
2023/12/28 07:42:31;;;;;;;7.57;1.10;;;;;;;7.06;100.00;98211.28;5030899;28;20445;-95
2023/12/28 07:44:56;;;;;;;13.68;1.83;;;;;;;7.06;100.00;98199.97;5001254;28;20029;-96
2023/12/28 07:47:22;;;;;;;9.23;1.50;;;;;;;7.17;100.00;98193.47;4984634;28;20030;-95
2023/12/28 07:49:50;;;;;;;14.73;2.38;;;;;;;7.21;100.00;98194.75;4984241;28;20077;-96
2023/12/28 07:52:17;;;;;;;15.23;1.83;;;;;;;7.16;100.00;98191.84;5007216;28;20057;-96
2023/12/28 07:54:43;;;;;;;15.38;2.03;;;;;;;7.13;100.00;98179.88;4989088;28;20040;-96
2023/12/28 07:57:09;;;;;;;13.20;2.25;;;;;;;7.22;100.00;98185.03;5009573;28;20050;-96
2023/12/28 07:59:34;;;;;;;14.38;2.00;;;;;;;7.21;100.00;98181.63;5013802;28;20053;-95
2023/12/28 08:02:02;;;;;;;13.55;1.25;;;;;;;7.27;100.00;98175.66;5011032;28;20030;-95
2023/12/28 08:04:28;;;;;;;11.52;1.77;;;;;;;7.32;100.00;98189.06;5015821;28;20026;-95
2023/12/28 08:06:54;;;;;;;9.10;1.45;;;;;;;7.36;100.00;98191.34;4982342;28;20056;-96
2023/12/28 08:09:20;;;;;;;17.42;2.38;;;;;;;7.42;100.00;98193.25;5010256;28;20132;-96
2023/12/28 08:11:46;;;;;;;14.40;1.63;;;;;;;7.39;100.00;98173.38;5014487;28;20041;-96
2023/12/28 08:14:12;;;;;;;14.88;1.98;;;;;;;7.50;100.00;98193.13;5000497;28;20038;-96
2023/12/28 08:16:38;;;;;;;18.10;2.03;;;;;;;7.47;100.00;98182.97;4981434;28;20041;-95
2023/12/28 08:19:04;;;;;;;11.23;1.98;;;;;;;7.52;100.00;98190.34;4993148;28;20081;-94
2023/12/28 08:21:30;;;;;;;13.07;1.50;;;;;;;7.51;100.00;98183.44;5028318;28;20040;-96
2023/12/28 08:23:56;;;;;;;9.00;1.63;;;;;;;7.54;100.00;98183.09;4995096;28;20374;-96
2023/12/28 08:26:22;;;;;;;10.73;1.63;;;;;;;7.44;100.00;98168.41;5008122;28;20033;-94
2023/12/28 08:28:48;;;;;;;10.90;1.65;;;;;;;7.50;100.00;98177.38;5005244;28;20470;-96
2023/12/28 08:31:14;;;;;;;14.32;2.17;;;;;;;7.50;100.00;98187.09;4998900;28;20026;-96
2023/12/28 08:33:40;;;;;;;13.75;2.08;;;;;;;7.50;100.00;98179.19;5006682;28;20061;-96
2023/12/28 08:36:09;;;;;;;15.70;2.65;;;;;;;7.55;100.00;98176.81;5022918;28;20033;-95
2023/12/28 08:38:35;;;;;;;12.60;2.30;;;;;;;7.58;100.00;98184.34;4993806;28;20029;-94
2023/12/28 08:41:03;;;;;;;11.55;1.60;;;;;;;7.61;100.00;98183.19;5009743;28;20033;-96
2023/12/28 08:43:29;;;;;;;20.70;2.92;;;;;;;7.69;100.00;98167.34;4992699;28;20126;-94
2023/12/28 08:45:55;;;;;;;17.23;2.45;;;;;;;7.74;100.00;98191.25;5010594;28;20037;-96
2023/12/28 08:48:21;;;;;;;13.43;2.03;;;;;;;7.77;100.00;98195.34;4982212;28;20049;-95
2023/12/28 08:50:48;;;;;;;16.05;1.85;;;;;;;7.85;100.00;98208.38;4985398;28;20021;-95
2023/12/28 08:53:14;;;;;;;17.27;2.17;;;;;;;7.84;100.00;98219.06;4996080;28;20034;-95
2023/12/28 08:55:40;;;;;;;19.92;4.10;;;;;;;7.88;100.00;98228.25;5022341;28;20026;-95
2023/12/28 08:58:05;;;;;;;16.10;2.33;;;;;;;7.90;100.00;98252.56;4993583;28;20037;-93
2023/12/28 09:00:31;;;;;;;17.58;2.28;;;;;;;7.92;100.00;98256.66;5005896;28;20088;-94
2023/12/28 09:02:57;;;;;;;16.92;2.28;;;;;;;7.87;100.00;98256.38;5002565;28;20038;-96
2023/12/28 09:05:22;;;;;;;12.70;1.75;;;;;;;7.89;100.00;98233.34;4986289;28;20030;-95
2023/12/28 09:07:48;;;;;;;12.73;1.45;;;;;;;7.88;100.00;98254.56;4990169;28;20041;-95
2023/12/28 09:10:14;;;;;;;16.77;2.03;;;;;;;7.80;100.00;98248.38;4978451;28;20034;-96
2023/12/28 09:12:41;;;;;;;7.63;1.25;;;;;;;7.82;100.00;98237.66;5006614;28;20152;-95
2023/12/28 09:15:07;;;;;;;9.40;1.35;;;;;;;7.79;100.00;98238.84;5004162;28;20051;-93
2023/12/28 09:17:34;;;;;;;7.10;1.35;;;;;;;7.73;100.00;98236.97;4991752;28;20152;-94
2023/12/28 09:20:01;;;;;;;8.73;1.15;;;;;;;7.68;100.00;98234.03;5003802;28;20033;-92
2023/12/28 09:22:27;;;;;;;5.53;0.70;;;;;;;7.57;100.00;98248.44;5005960;28;20034;-94
2023/12/28 09:24:53;;;;;;;8.30;0.95;;;;;;;7.55;100.00;98258.31;5021159;28;20084;-95
2023/12/28 09:27:19;;;;;;;9.23;0.98;;;;;;;7.52;100.00;98237.66;4994045;28;20493;-95
2023/12/28 09:29:48;;;;;;;5.75;0.85;;;;;;;7.54;100.00;98249.63;5010565;28;20037;-95
2023/12/28 09:32:14;;;;;;;4.38;0.65;;;;;;;7.51;100.00;98243.91;4971316;28;20088;-93
2023/12/28 09:34:40;;;;;;;2.97;0.50;;;;;;;7.52;100.00;98233.22;4992324;28;20040;-94
2023/12/28 09:37:06;;;;;;;3.92;0.50;;;;;;;7.53;100.00;98219.06;5006755;28;20033;-95
2023/12/28 09:39:32;;;;;;;2.08;0.47;;;;;;;7.51;100.00;98218.44;5014273;28;20030;-94
2023/12/28 09:42:06;;;;;;;3.47;0.45;;;;;;;7.53;100.00;98226.94;5001065;28;20029;-94
2023/12/28 09:44:33;;;;;;;1.70;1.30;;;;;;;7.45;100.00;98243.63;5004696;28;20030;-96
2023/12/28 09:47:02;;;;;;;2.00;0.50;;;;;;;7.53;100.00;98244.56;4992360;28;20040;-96
2023/12/28 09:49:29;;;;;;;2.83;0.60;;;;;;;7.43;100.00;98256.16;4990248;28;20041;-96
2023/12/28 09:51:55;;;;;;;2.20;0.40;;;;;;;7.46;100.00;98273.38;5008412;28;20096;-93
2023/12/28 09:54:21;;;;;;;0.82;0.50;;;;;;;7.43;100.00;98256.16;4993418;28;20406;-93
2023/12/28 09:56:47;;;;;;;3.20;0.38;;;;;;;7.49;100.00;98273.00;4994602;28;20474;-93
2023/12/28 09:59:16;;;;;;;2.90;0.40;;;;;;;7.53;100.00;98289.25;4980165;28;20034;-95
2023/12/28 10:01:42;;;;;;;4.40;0.52;;;;;;;7.49;100.00;98287.94;4994413;28;20037;-94
2023/12/28 10:04:11;;;;;;;5.43;0.40;;;;;;;7.50;100.00;98285.16;5012922;28;20045;-96
2023/12/28 10:06:40;;;;;;;7.80;0.80;;;;;;;7.43;100.00;98285.06;5003587;28;20030;-95
2023/12/28 10:09:07;;;;;;;1.95;0.40;;;;;;;7.41;100.00;98297.56;5008215;28;20050;-96
2023/12/28 10:11:33;;;;;;;5.78;0.70;;;;;;;7.34;100.00;98288.75;5014821;28;20064;-95
2023/12/28 10:13:59;;;;;;;6.30;1.42;;;;;;;7.48;100.00;98302.94;4988973;28;20052;-94
2023/12/28 10:16:26;;;;;;;2.47;0.60;;;;;;;7.60;100.00;98319.06;4992588;28;20512;-96
2023/12/28 10:18:52;;;;;;;3.33;0.57;;;;;;;7.65;100.00;98315.91;4991592;28;20064;-96
2023/12/28 10:21:25;;;;;;;8.30;0.95;;;;;;;7.73;100.00;98325.53;4989654;28;20030;-96
2023/12/28 10:23:52;;;;;;;7.82;1.15;;;;;;;7.81;100.00;98336.81;5003306;28;20046;-94
2023/12/28 10:26:19;;;;;;;4.57;0.63;;;;;;;7.85;100.00;98346.97;5025140;28;20022;-94
2023/12/28 10:28:44;;;;;;;6.15;0.82;;;;;;;7.85;100.00;98346.97;4977838;28;20045;-95
2023/12/28 10:31:11;;;;;;;3.80;0.80;;;;;;;7.82;100.00;98341.06;4991273;28;20034;-95
2023/12/28 10:33:38;;;;;;;5.25;1.10;;;;;;;7.90;100.00;98363.84;5005159;28;20037;-95
2023/12/28 10:36:08;;;;;;;7.55;1.00;;;;;;;7.94;100.00;98351.16;4971381;28;20069;-95
2023/12/28 10:38:36;;;;;;;6.80;1.05;;;;;;;7.90;100.00;98361.22;5007540;28;20033;-95
2023/12/28 10:41:07;;;;;;;9.73;2.13;;;;;;;7.96;100.00;98364.13;5006029;28;20061;-95
2023/12/28 10:43:43;;;;;;;6.28;0.80;;;;;;;7.91;100.00;98367.31;4973608;28;20040;-96
2023/12/28 10:46:10;;;;;;;3.90;0.82;;;;;;;7.91;100.00;98367.31;4987109;28;20056;-95
2023/12/28 10:48:39;;;;;;;8.25;1.70;;;;;;;7.94;100.00;98380.09;5007325;28;20045;-95
2023/12/28 10:51:10;;;;;;;11.38;1.67;;;;;;;7.90;100.00;98365.69;4981077;28;20041;-96
2023/12/28 10:53:50;;;;;;;5.07;0.80;;;;;;;7.81;100.00;98372.81;4985579;28;20040;-96
2023/12/28 10:56:37;;;;;;;7.93;1.42;;;;;;;7.79;100.00;98370.34;4997143;28;20037;-96
2023/12/28 10:59:15;;;;;;;9.50;1.15;;;;;;;7.78;100.00;98374.00;4989884;28;20030;-96
2023/12/28 11:01:43;;;;;;;8.80;1.25;;;;;;;7.73;100.00;98365.81;4987603;28;20064;-87
2023/12/28 11:04:30;;;;;;;7.68;0.93;;;;;;;7.80;100.00;98371.19;5010449;28;20107;-96
2023/12/28 11:06:56;;;;;;;9.70;0.90;;;;;;;7.85;100.00;98374.06;5001683;28;20041;-96
2023/12/28 11:09:26;;;;;;;14.02;2.75;;;;;;;7.97;100.00;98385.00;4996338;28;20081;-93
2023/12/28 11:11:54;;;;;;;8.02;1.35;;;;;;;8.05;100.00;98392.81;5000046;28;20361;-95
2023/12/28 11:14:20;;;;;;;9.88;1.05;;;;;;;8.13;100.00;98388.47;5011240;28;20026;-96
2023/12/28 11:16:47;;;;;;;14.98;1.38;;;;;;;8.23;100.00;98382.94;5017056;28;20075;-95
2023/12/28 11:19:13;;;;;;;11.63;1.85;;;;;;;8.27;100.00;98382.41;4992325;28;20248;-94
2023/12/28 11:21:39;;;;;;;11.45;1.70;;;;;;;8.30;100.00;98381.22;5021564;28;20030;-95
2023/12/28 11:24:06;;;;;;;9.13;1.33;;;;;;;8.26;100.00;98374.69;4996383;28;20471;-95
2023/12/28 11:26:32;;;;;;;11.05;2.33;;;;;;;8.24;100.00;98384.56;4980937;28;20045;-93
2023/12/28 11:29:03;;;;;;;12.65;1.80;;;;;;;8.25;100.00;98373.88;4979435;28;20033;-95
2023/12/28 11:31:33;;;;;;;14.35;2.53;;;;;;;8.21;100.00;98388.41;5014789;28;20572;-96
2023/12/28 11:33:59;;;;;;;20.73;2.95;;;;;;;8.12;100.00;98392.09;5005835;28;20032;-95
2023/12/28 11:36:37;;;;;;;18.60;5.43;;;;;;;8.15;100.00;98389.13;4992585;28;20107;-92
2023/12/28 11:39:06;;;;;;;16.60;5.22;;;;;;;8.15;100.00;98386.50;5011493;28;20037;-93